Time;durP1;ratioP1;P1;durP2;ratioP2;P2;SDS_P1;SDS_P2;PMS_P1;PMS_P2;Temp;Humidity;BMP_temperature;BMP_pressure;BME280_temperature;BME280_humidity;BME280_pressure;Samples;Min_cycle;Max_cycle;Signal;HPM_P1;HPM_P2
2023/04/24 00:00:16;;;;;;;8.40;4.80;;;12.50;99.90;;;;;;4788011;30;20193;-78
2023/04/24 00:02:46;;;;;;;6.72;5.47;;;12.50;99.90;;;;;;4788304;30;20220;-77
2023/04/24 00:05:14;;;;;;;8.77;7.18;;;12.50;99.90;;;;;;4788213;30;20219;-77
2023/04/24 00:07:41;;;;;;;8.65;7.30;;;12.50;99.90;;;;;;4787474;30;20196;-77
2023/04/24 00:10:07;;;;;;;9.82;7.72;;;12.40;99.90;;;;;;4787516;30;20216;-77
2023/04/24 00:12:33;;;;;;;10.07;8.55;;;12.40;99.90;;;;;;4779175;29;20201;-77
2023/04/24 00:14:59;;;;;;;9.10;7.90;;;12.40;99.90;;;;;;4763975;30;20189;-77
2023/04/24 00:17:25;;;;;;;10.35;7.80;;;12.40;99.90;;;;;;4777034;30;20685;-77
2023/04/24 00:19:51;;;;;;;9.25;7.40;;;12.40;99.90;;;;;;4788212;30;20196;-77
2023/04/24 00:22:17;;;;;;;9.13;7.57;;;12.40;99.90;;;;;;4781978;30;20273;-80
2023/04/24 00:24:43;;;;;;;9.60;7.82;;;12.30;99.90;;;;;;4767786;30;20201;-77
2023/04/24 00:27:09;;;;;;;8.90;8.00;;;12.30;99.90;;;;;;4770618;30;20693;-77
2023/04/24 00:29:34;;;;;;;9.32;7.90;;;12.30;99.90;;;;;;4771700;30;20256;-77
2023/04/24 00:32:00;;;;;;;13.32;9.98;;;12.30;99.90;;;;;;4786271;30;20200;-82
2023/04/24 00:34:26;;;;;;;12.13;9.60;;;12.30;99.90;;;;;;4772013;30;20185;-77
2023/04/24 00:36:52;;;;;;;9.90;7.50;;;12.30;99.90;;;;;;4781054;30;20236;-77
2023/04/24 00:39:22;;;;;;;6.00;4.85;;;12.30;99.90;;;;;;4769974;30;20212;-77
2023/04/24 00:41:50;;;;;;;4.63;3.92;;;12.20;99.90;;;;;;4784724;30;20205;-77
2023/04/24 00:44:16;;;;;;;3.03;2.78;;;12.20;99.90;;;;;;4760369;30;20196;-77
2023/04/24 00:46:43;;;;;;;5.00;2.80;;;12.20;99.90;;;;;;4785070;29;20224;-77
2023/04/24 00:49:08;;;;;;;3.00;2.42;;;12.10;99.90;;;;;;4773017;30;20188;-77
2023/04/24 00:51:34;;;;;;;2.30;2.10;;;12.20;99.90;;;;;;4771767;29;20278;-77
2023/04/24 00:54:00;;;;;;;4.60;2.10;;;12.10;99.90;;;;;;4787564;30;20708;-77
2023/04/24 00:56:27;;;;;;;3.13;1.90;;;12.10;99.90;;;;;;4771562;30;20227;-77
2023/04/24 00:58:53;;;;;;;2.47;2.00;;;12.00;99.90;;;;;;4770625;30;20236;-78
2023/04/24 01:01:20;;;;;;;2.88;1.77;;;11.90;99.90;;;;;;4769217;30;20201;-77
2023/04/24 01:03:48;;;;;;;4.03;1.77;;;11.90;99.90;;;;;;4768559;30;20212;-77
2023/04/24 01:06:15;;;;;;;2.88;1.73;;;11.90;99.90;;;;;;4769782;30;21084;-77
2023/04/24 01:08:41;;;;;;;2.05;1.88;;;11.80;99.90;;;;;;4755620;30;20736;-77
2023/04/24 01:11:07;;;;;;;1.88;1.58;;;11.80;99.90;;;;;;4770160;30;20220;-77
2023/04/24 01:13:34;;;;;;;1.80;1.70;;;11.80;99.90;;;;;;4767141;30;20224;-78
2023/04/24 01:16:01;;;;;;;3.80;1.85;;;11.80;99.90;;;;;;4771731;30;20192;-77
2023/04/24 01:18:27;;;;;;;4.28;1.60;;;11.80;99.90;;;;;;4771786;30;20676;-77
2023/04/24 01:20:56;;;;;;;2.22;1.70;;;11.80;99.90;;;;;;4768213;30;20184;-77
2023/04/24 01:23:23;;;;;;;1.60;1.50;;;11.80;99.90;;;;;;4785646;30;20188;-77
2023/04/24 01:25:51;;;;;;;1.67;1.58;;;11.80;99.90;;;;;;4774515;30;20319;-77
2023/04/24 01:28:18;;;;;;;1.50;1.40;;;11.80;99.90;;;;;;4772807;29;20780;-77
2023/04/24 01:30:44;;;;;;;1.48;1.38;;;11.80;99.90;;;;;;4788231;29;20323;-77
2023/04/24 01:33:10;;;;;;;1.48;1.38;;;11.80;99.90;;;;;;4775179;30;20201;-77
2023/04/24 01:35:37;;;;;;;2.80;1.70;;;11.80;99.90;;;;;;4772645;30;20193;-77
2023/04/24 01:38:04;;;;;;;2.75;1.50;;;11.80;99.90;;;;;;4784433;30;20215;-77
2023/04/24 01:40:30;;;;;;;1.98;1.77;;;11.80;99.90;;;;;;4774420;30;20662;-79
2023/04/24 01:42:58;;;;;;;1.90;1.80;;;11.80;99.90;;;;;;4770635;30;20247;-77
2023/04/24 01:45:23;;;;;;;1.90;1.80;;;11.80;99.90;;;;;;4774348;30;20204;-77
2023/04/24 01:47:50;;;;;;;2.25;1.90;;;11.80;99.90;;;;;;4790087;30;20654;-77
2023/04/24 01:50:17;;;;;;;2.17;2.00;;;11.80;99.90;;;;;;4752278;30;20643;-77
2023/04/24 01:52:43;;;;;;;3.03;2.13;;;11.80;99.90;;;;;;4779334;29;20381;-82
2023/04/24 01:55:09;;;;;;;3.05;2.20;;;11.80;99.90;;;;;;4770772;30;20672;-77
2023/04/24 01:57:36;;;;;;;1.92;1.83;;;11.70;99.90;;;;;;4776181;30;20205;-77
2023/04/24 02:00:04;;;;;;;2.45;2.25;;;11.70;99.90;;;;;;4756400;30;20288;-77
2023/04/24 02:02:42;;;;;;;2.65;2.45;;;11.70;99.90;;;;;;4780285;30;20204;-77
2023/04/24 02:05:08;;;;;;;2.63;2.30;;;11.70;99.90;;;;;;4773629;30;20280;-77
2023/04/24 02:07:35;;;;;;;2.90;2.70;;;11.70;99.90;;;;;;4756283;30;20262;-78
2023/04/24 02:10:03;;;;;;;3.13;2.83;;;11.60;99.90;;;;;;4785278;30;20209;-77
2023/04/24 02:12:29;;;;;;;3.28;2.97;;;11.60;99.90;;;;;;4790425;29;20185;-77
2023/04/24 02:14:55;;;;;;;3.13;2.83;;;11.60;99.90;;;;;;4789174;30;20214;-77
2023/04/24 02:17:21;;;;;;;3.78;3.38;;;11.60;99.90;;;;;;4772284;30;20207;-77
2023/04/24 02:19:47;;;;;;;4.78;3.42;;;11.60;99.90;;;;;;4790062;30;20245;-75
2023/04/24 02:22:12;;;;;;;10.98;3.78;;;11.60;99.90;;;;;;4784672;30;20198;-75
2023/04/24 02:24:38;;;;;;;3.50;3.20;;;11.60;99.90;;;;;;4782372;29;20250;-76
2023/04/24 02:27:06;;;;;;;4.00;3.60;;;11.60;99.90;;;;;;4788788;30;20232;-75
2023/04/24 02:29:32;;;;;;;4.03;3.60;;;11.60;99.90;;;;;;4779931;30;20720;-76
2023/04/24 02:31:58;;;;;;;4.10;3.70;;;11.60;99.90;;;;;;4775257;30;20274;-75
2023/04/24 02:34:24;;;;;;;4.22;3.80;;;11.60;99.90;;;;;;4776958;30;20284;-75
2023/04/24 02:36:50;;;;;;;6.82;4.28;;;11.60;99.90;;;;;;4773569;30;20212;-77
2023/04/24 02:39:18;;;;;;;5.10;4.70;;;11.60;99.90;;;;;;4773387;30;20315;-76
2023/04/24 02:41:44;;;;;;;5.40;4.75;;;11.60;99.90;;;;;;4788953;30;20195;-76
2023/04/24 02:44:10;;;;;;;8.27;5.03;;;11.60;99.90;;;;;;4771665;30;20185;-78
2023/04/24 02:46:36;;;;;;;5.30;4.75;;;11.60;99.90;;;;;;4787937;29;20269;-77
2023/04/24 02:49:02;;;;;;;5.75;5.15;;;11.60;99.90;;;;;;4773276;30;20288;-77
2023/04/24 02:51:28;;;;;;;5.97;5.10;;;11.60;99.90;;;;;;4773854;30;20253;-81
2023/04/24 02:53:54;;;;;;;5.60;5.10;;;11.60;99.90;;;;;;4789331;30;20185;-77
2023/04/24 02:56:20;;;;;;;5.82;5.22;;;11.50;99.90;;;;;;4756437;30;20208;-76
2023/04/24 02:58:45;;;;;;;6.68;5.60;;;11.60;99.90;;;;;;4789355;30;20185;-77
2023/04/24 03:01:11;;;;;;;5.90;5.30;;;11.50;99.90;;;;;;4773247;30;20287;-76
2023/04/24 03:03:38;;;;;;;9.07;5.65;;;11.60;99.90;;;;;;4758176;30;20273;-76
2023/04/24 03:06:05;;;;;;;6.32;5.25;;;11.50;99.90;;;;;;4771022;29;20228;-76
2023/04/24 03:08:32;;;;;;;6.55;5.95;;;11.60;99.90;;;;;;4781571;29;20286;-75
2023/04/24 03:10:57;;;;;;;6.80;6.15;;;11.60;99.90;;;;;;4775667;30;20287;-75
2023/04/24 03:13:23;;;;;;;7.20;6.50;;;11.60;99.90;;;;;;4771025;30;20280;-75
2023/04/24 03:15:49;;;;;;;8.18;6.43;;;11.60;99.90;;;;;;4772121;29;20213;-75
2023/04/24 03:18:15;;;;;;;7.32;6.63;;;11.60;99.90;;;;;;4772408;30;20196;-76
2023/04/24 03:20:41;;;;;;;7.38;6.55;;;11.60;99.90;;;;;;4762576;30;20224;-76
2023/04/24 03:23:07;;;;;;;7.68;6.97;;;11.60;99.90;;;;;;4766742;30;20243;-76
2023/04/24 03:25:34;;;;;;;7.88;7.07;;;11.50;99.90;;;;;;4743215;30;20320;-75
2023/04/24 03:28:00;;;;;;;8.25;7.45;;;11.50;99.90;;;;;;4765520;30;20211;-75
2023/04/24 03:30:37;;;;;;;7.93;7.13;;;11.50;99.90;;;;;;4772299;30;20705;-76
2023/04/24 03:33:04;;;;;;;9.40;8.07;;;11.50;99.90;;;;;;4772722;30;20275;-75
2023/04/24 03:35:33;;;;;;;10.40;8.20;;;11.60;99.90;;;;;;4772418;30;20272;-76
2023/04/24 03:38:04;;;;;;;9.23;8.27;;;11.60;99.90;;;;;;4771726;30;20287;-76
2023/04/24 03:40:42;;;;;;;9.93;8.93;;;11.60;99.90;;;;;;4774069;30;20185;-76
2023/04/24 03:43:27;;;;;;;10.13;9.10;;;11.60;99.90;;;;;;4786101;30;20202;-77
2023/04/24 03:45:54;;;;;;;11.60;10.40;;;11.50;99.90;;;;;;4757663;30;20303;-76
2023/04/24 03:48:20;;;;;;;12.60;11.02;;;11.50;99.90;;;;;;4768544;29;20184;-77
2023/04/24 03:50:46;;;;;;;13.10;11.70;;;11.50;99.90;;;;;;4756143;30;20235;-76
2023/04/24 03:53:12;;;;;;;13.50;11.65;;;11.50;99.90;;;;;;4770003;30;20726;-76
2023/04/24 03:55:40;;;;;;;14.02;11.77;;;11.50;99.90;;;;;;4771679;30;20200;-76
2023/04/24 03:58:06;;;;;;;14.32;12.65;;;11.50;99.90;;;;;;4765429;30;20181;-75
2023/04/24 04:00:32;;;;;;;14.63;12.40;;;11.50;99.90;;;;;;4772038;30;20215;-75
2023/04/24 04:03:17;;;;;;;14.27;12.77;;;11.50;99.90;;;;;;4781165;29;20219;-76
2023/04/24 04:05:45;;;;;;;14.70;13.15;;;11.50;99.90;;;;;;4754231;30;20225;-76
2023/04/24 04:08:10;;;;;;;15.75;14.00;;;11.50;99.90;;;;;;4763727;30;20251;-76
2023/04/24 04:10:37;;;;;;;16.02;13.30;;;11.50;99.90;;;;;;4771457;30;20258;-76
2023/04/24 04:13:06;;;;;;;15.63;13.65;;;11.60;99.90;;;;;;4763290;30;20519;-76
2023/04/24 04:15:32;;;;;;;14.77;13.23;;;11.50;99.90;;;;;;4763444;30;20668;-76
2023/04/24 04:17:57;;;;;;;15.95;13.88;;;11.60;99.90;;;;;;4765154;30;20208;-76
2023/04/24 04:20:23;;;;;;;15.73;13.80;;;11.50;99.90;;;;;;4792271;29;20646;-76
2023/04/24 04:22:49;;;;;;;15.63;12.60;;;11.60;99.90;;;;;;4769542;30;20196;-89
2023/04/24 04:25:22;;;;;;;14.18;12.70;;;11.50;99.90;;;;;;4751304;30;20300;-82
2023/04/24 04:27:48;;;;;;;13.73;12.32;;;11.50;99.90;;;;;;4787215;30;20188;-78
2023/04/24 04:30:14;;;;;;;15.07;12.65;;;11.50;99.90;;;;;;4771098;30;20626;-76
2023/04/24 04:32:48;;;;;;;12.98;11.55;;;11.50;99.90;;;;;;4757601;30;20222;-76
2023/04/24 04:35:14;;;;;;;13.13;10.95;;;11.50;99.90;;;;;;4767281;30;20279;-80
2023/04/24 04:37:40;;;;;;;16.15;10.50;;;11.50;99.90;;;;;;4769951;29;20196;-76
2023/04/24 04:40:28;;;;;;;12.70;9.82;;;11.50;99.90;;;;;;4785983;29;20613;-78
2023/04/24 04:42:59;;;;;;;10.77;9.38;;;11.50;99.90;;;;;;4776578;29;20200;-77
2023/04/24 04:45:30;;;;;;;10.52;9.43;;;11.50;99.90;;;;;;4776303;30;20674;-75
2023/04/24 04:48:23;;;;;;;11.63;9.73;;;11.40;99.90;;;;;;4753148;30;20659;-77
2023/04/24 04:50:49;;;;;;;12.60;9.35;;;11.50;99.90;;;;;;4768425;30;20193;-78
2023/04/24 04:53:16;;;;;;;9.25;8.35;;;11.40;99.90;;;;;;4767178;30;20184;-77
2023/04/24 04:55:42;;;;;;;11.18;9.48;;;11.40;99.90;;;;;;4771419;30;20569;-82
2023/04/24 04:58:10;;;;;;;14.27;9.40;;;11.40;99.90;;;;;;4763101;30;20234;-78
2023/04/24 05:00:37;;;;;;;10.13;9.10;;;11.40;99.90;;;;;;4776948;29;20205;-77
2023/04/24 05:03:11;;;;;;;9.63;8.50;;;11.40;99.90;;;;;;4761390;29;20200;-76
2023/04/24 05:05:40;;;;;;;9.18;8.27;;;11.40;99.90;;;;;;4773487;30;20283;-76
2023/04/24 05:08:08;;;;;;;7.80;6.95;;;11.40;99.90;;;;;;4774660;30;20215;-77
2023/04/24 05:10:36;;;;;;;7.93;7.13;;;11.30;99.90;;;;;;4774444;30;20333;-77
2023/04/24 05:13:04;;;;;;;6.97;6.28;;;11.40;99.90;;;;;;4771874;30;20686;-77
2023/04/24 05:15:31;;;;;;;7.57;6.80;;;11.40;99.90;;;;;;4772214;30;20192;-77
2023/04/24 05:17:58;;;;;;;6.95;6.25;;;11.40;99.90;;;;;;4759916;30;20349;-77
2023/04/24 05:20:25;;;;;;;6.18;5.57;;;11.40;99.90;;;;;;4774544;30;20192;-77
2023/04/24 05:22:51;;;;;;;6.65;5.95;;;11.40;99.90;;;;;;4773092;30;20193;-78
2023/04/24 05:25:18;;;;;;;6.32;5.55;;;11.40;99.90;;;;;;4794759;29;20275;-77
2023/04/24 05:27:51;;;;;;;6.90;5.63;;;11.40;99.90;;;;;;4778507;29;20758;-76
2023/04/24 05:30:17;;;;;;;6.93;5.85;;;11.40;99.90;;;;;;4791917;29;20285;-77
2023/04/24 05:32:43;;;;;;;7.47;5.82;;;11.40;99.90;;;;;;4756943;29;20189;-77
2023/04/24 05:35:09;;;;;;;6.68;5.97;;;11.50;99.90;;;;;;4771783;29;20189;-78
2023/04/24 05:37:36;;;;;;;7.53;6.35;;;11.40;99.90;;;;;;4771317;30;20200;-77
2023/04/24 05:40:04;;;;;;;6.60;5.50;;;11.40;99.90;;;;;;4784568;29;20299;-78
2023/04/24 05:42:30;;;;;;;6.40;5.00;;;11.40;99.90;;;;;;4761224;29;20197;-77
2023/04/24 05:44:56;;;;;;;7.43;5.47;;;11.40;99.90;;;;;;4785513;29;20196;-78
2023/04/24 05:47:22;;;;;;;5.93;4.78;;;11.40;99.90;;;;;;4773722;30;20220;-78
2023/04/24 05:49:48;;;;;;;8.00;5.22;;;11.40;99.90;;;;;;4758972;30;20658;-77
2023/04/24 05:52:14;;;;;;;5.80;4.20;;;11.40;99.90;;;;;;4773692;30;20192;-77
2023/04/24 05:54:41;;;;;;;6.32;4.47;;;11.40;99.90;;;;;;4755096;30;20297;-78
2023/04/24 05:57:08;;;;;;;8.65;5.50;;;11.50;99.90;;;;;;4781306;29;20227;-76
2023/04/24 05:59:48;;;;;;;7.32;5.20;;;11.40;99.90;;;;;;4777642;30;20618;-79
2023/04/24 06:02:14;;;;;;;5.97;4.53;;;11.50;99.90;;;;;;4770977;30;20190;-77
2023/04/24 06:04:41;;;;;;;7.22;5.05;;;11.50;99.90;;;;;;4771226;30;20562;-76
2023/04/24 06:07:13;;;;;;;9.43;6.00;;;11.50;99.90;;;;;;4773473;30;20251;-78
2023/04/24 06:09:41;;;;;;;7.97;5.35;;;11.50;99.90;;;;;;4773025;30;20188;-76
2023/04/24 06:12:08;;;;;;;8.38;6.40;;;11.40;99.90;;;;;;4773450;30;20673;-76
2023/04/24 06:14:47;;;;;;;9.48;5.68;;;11.40;99.90;;;;;;4756007;30;20201;-77
2023/04/24 06:17:23;;;;;;;8.52;6.32;;;11.40;99.90;;;;;;4772621;30;20196;-77
2023/04/24 06:19:50;;;;;;;9.25;6.93;;;11.40;99.90;;;;;;4757764;30;20195;-78
2023/04/24 06:22:15;;;;;;;7.40;5.88;;;11.40;99.90;;;;;;4772429;30;20189;-77
2023/04/24 06:24:41;;;;;;;10.35;5.97;;;11.40;99.90;;;;;;4772262;29;20213;-77
2023/04/24 06:27:07;;;;;;;10.68;6.78;;;11.40;99.90;;;;;;4759517;29;20316;-77
2023/04/24 06:29:33;;;;;;;9.48;7.07;;;11.40;99.90;;;;;;4782176;29;20201;-77
2023/04/24 06:31:59;;;;;;;11.35;7.45;;;11.40;99.90;;;;;;4785287;30;20197;-78
2023/04/24 06:34:25;;;;;;;9.48;7.18;;;11.40;99.90;;;;;;4785380;29;20216;-78
2023/04/24 06:36:51;;;;;;;11.65;7.28;;;11.40;99.90;;;;;;4769287;30;20201;-77
2023/04/24 06:39:17;;;;;;;14.35;7.97;;;11.40;99.90;;;;;;4788919;30;20224;-77
2023/04/24 06:41:42;;;;;;;12.05;7.32;;;11.40;99.90;;;;;;4789272;30;20188;-80
2023/04/24 06:44:17;;;;;;;9.82;7.32;;;11.40;99.90;;;;;;4772857;30;20188;-77
2023/04/24 06:46:43;;;;;;;10.60;7.05;;;11.40;99.90;;;;;;4769191;30;20682;-78
2023/04/24 06:49:09;;;;;;;11.25;7.00;;;11.40;99.90;;;;;;4785038;29;20655;-78
2023/04/24 06:51:35;;;;;;;10.60;6.65;;;11.40;99.90;;;;;;4786745;29;20204;-79
2023/04/24 06:54:01;;;;;;;11.85;7.40;;;11.40;99.90;;;;;;4775851;29;20267;-78
2023/04/24 06:56:28;;;;;;;11.23;6.72;;;11.40;99.90;;;;;;4781117;29;20197;-79
2023/04/24 06:58:55;;;;;;;10.45;6.35;;;11.40;99.90;;;;;;4784578;29;20196;-77
2023/04/24 07:01:20;;;;;;;7.38;5.72;;;11.40;99.90;;;;;;4787695;30;20261;-76
2023/04/24 07:03:46;;;;;;;12.20;5.10;;;11.40;99.90;;;;;;4785069;29;20558;-76
2023/04/24 07:06:12;;;;;;;10.18;4.53;;;11.50;99.90;;;;;;4782337;29;20236;-77
2023/04/24 07:08:38;;;;;;;8.05;3.65;;;11.50;99.90;;;;;;4786416;29;20193;-78
2023/04/24 07:11:05;;;;;;;6.05;3.60;;;11.50;99.90;;;;;;4772539;30;20196;-77
2023/04/24 07:13:31;;;;;;;5.32;3.60;;;11.50;99.90;;;;;;4788307;30;20231;-77
2023/04/24 07:15:57;;;;;;;12.38;3.53;;;11.60;99.90;;;;;;4788643;29;20278;-82
2023/04/24 07:18:22;;;;;;;5.53;2.80;;;11.50;99.90;;;;;;4783231;29;20313;-79
2023/04/24 07:20:50;;;;;;;5.55;2.85;;;11.50;99.90;;;;;;4782944;29;20193;-79
2023/04/24 07:23:16;;;;;;;6.15;3.05;;;11.50;99.90;;;;;;4788242;30;20189;-76
2023/04/24 07:25:42;;;;;;;4.75;3.00;;;11.50;99.90;;;;;;4788408;29;20276;-77
2023/04/24 07:28:08;;;;;;;8.13;3.00;;;11.50;99.90;;;;;;4784914;29;20193;-79
2023/04/24 07:30:34;;;;;;;5.55;2.78;;;11.50;99.90;;;;;;4768586;30;20728;-77
2023/04/24 07:33:00;;;;;;;7.20;3.00;;;11.50;99.90;;;;;;4785057;29;20250;-77
2023/04/24 07:35:28;;;;;;;5.43;3.55;;;11.50;99.90;;;;;;4784972;29;20208;-78
2023/04/24 07:37:54;;;;;;;10.18;3.65;;;11.50;99.90;;;;;;4788094;30;20193;-78
2023/04/24 07:40:21;;;;;;;10.32;3.63;;;11.50;99.90;;;;;;4787561;30;20196;-79
2023/04/24 07:42:48;;;;;;;12.60;3.80;;;11.50;99.90;;;;;;4769967;29;20317;-79
2023/04/24 07:45:14;;;;;;;8.13;3.80;;;11.50;99.90;;;;;;4785551;29;20266;-78
2023/04/24 07:47:45;;;;;;;11.30;4.72;;;11.50;99.90;;;;;;4787721;30;20223;-79
2023/04/24 07:50:12;;;;;;;11.75;4.10;;;11.40;99.90;;;;;;4787923;30;20211;-78
2023/04/24 07:52:38;;;;;;;13.45;4.20;;;11.50;99.90;;;;;;4785566;29;20735;-78
2023/04/24 07:55:04;;;;;;;7.30;3.30;;;11.50;99.90;;;;;;4784116;29;20196;-78
2023/04/24 07:57:30;;;;;;;8.65;3.38;;;11.50;99.90;;;;;;4787807;30;20204;-78
2023/04/24 07:59:56;;;;;;;9.50;3.45;;;11.50;99.90;;;;;;4789349;29;20563;-78
2023/04/24 08:02:26;;;;;;;11.93;5.00;;;11.50;99.90;;;;;;4758385;30;20197;-78
2023/04/24 08:04:53;;;;;;;10.52;5.47;;;11.50;99.90;;;;;;4764248;29;21178;-78
2023/04/24 08:07:20;;;;;;;9.15;5.97;;;11.50;99.90;;;;;;4784626;30;20311;-78
2023/04/24 08:09:45;;;;;;;11.45;6.60;;;11.50;99.90;;;;;;4742032;30;20260;-78
2023/04/24 08:12:11;;;;;;;17.45;7.70;;;11.40;99.90;;;;;;4782479;30;20613;-77
2023/04/24 08:14:37;;;;;;;17.40;8.70;;;11.40;99.90;;;;;;4770748;29;20537;-78
2023/04/24 08:17:03;;;;;;;19.08;11.80;;;11.40;99.90;;;;;;4773570;30;20196;-78
2023/04/24 08:19:29;;;;;;;22.75;12.82;;;11.40;99.90;;;;;;4771960;30;20295;-78
2023/04/24 08:21:55;;;;;;;21.33;13.00;;;11.30;99.90;;;;;;4754456;30;20560;-78
2023/04/24 08:24:21;;;;;;;20.92;12.93;;;11.30;99.90;;;;;;4781903;29;20197;-78
2023/04/24 08:26:50;;;;;;;26.25;14.52;;;11.30;99.90;;;;;;4778252;29;20252;-78
2023/04/24 08:29:16;;;;;;;27.08;14.32;;;11.30;99.90;;;;;;4756617;30;20195;-79
2023/04/24 08:31:42;;;;;;;27.33;13.93;;;11.30;99.90;;;;;;4773904;30;20229;-79
2023/04/24 08:34:08;;;;;;;27.63;14.90;;;11.30;99.90;;;;;;4777604;29;20203;-78
2023/04/24 08:36:34;;;;;;;31.90;15.48;;;11.30;99.90;;;;;;4780997;29;20211;-78
2023/04/24 08:39:00;;;;;;;27.95;14.95;;;11.30;99.90;;;;;;4785764;29;20222;-79
2023/04/24 08:41:27;;;;;;;24.42;14.25;;;11.30;99.90;;;;;;4767539;30;20193;-82
2023/04/24 08:43:53;;;;;;;23.25;13.88;;;11.30;99.90;;;;;;4790264;30;20225;-79
2023/04/24 08:46:21;;;;;;;27.45;14.15;;;11.30;99.90;;;;;;4790898;30;20725;-79
2023/04/24 08:48:48;;;;;;;24.63;13.65;;;11.30;99.90;;;;;;4789613;30;20284;-78
2023/04/24 08:51:15;;;;;;;22.42;13.13;;;11.20;99.90;;;;;;4780722;29;20276;-82
2023/04/24 08:53:40;;;;;;;29.52;12.70;;;11.20;99.90;;;;;;4787403;30;20196;-78
2023/04/24 08:56:07;;;;;;;27.83;13.57;;;11.10;99.90;;;;;;4787762;30;20220;-79
2023/04/24 08:58:33;;;;;;;24.23;12.15;;;11.10;99.90;;;;;;4789194;30;20201;-79
2023/04/24 09:01:00;;;;;;;23.10;12.65;;;11.00;99.90;;;;;;4766960;29;20188;-78
2023/04/24 09:03:28;;;;;;;19.85;11.68;;;11.00;99.90;;;;;;4781075;29;20313;-79
2023/04/24 09:05:55;;;;;;;17.92;11.30;;;10.90;99.90;;;;;;4789586;30;20663;-79
2023/04/24 09:08:24;;;;;;;20.70;11.98;;;10.90;99.90;;;;;;4788819;30;20221;-77
2023/04/24 09:10:50;;;;;;;20.77;12.85;;;10.90;99.90;;;;;;4787284;29;20205;-77
2023/04/24 09:13:17;;;;;;;21.38;13.65;;;10.90;99.90;;;;;;4766330;30;20655;-82
2023/04/24 09:15:43;;;;;;;21.63;13.70;;;10.80;99.90;;;;;;4784660;29;20670;-79
2023/04/24 09:18:08;;;;;;;21.20;13.52;;;10.80;99.90;;;;;;4786444;29;20193;-78
2023/04/24 09:20:37;;;;;;;24.42;14.27;;;10.80;99.90;;;;;;4790321;30;20184;-78
2023/04/24 09:23:03;;;;;;;22.60;13.63;;;10.80;99.90;;;;;;4763173;29;20215;-77
2023/04/24 09:25:33;;;;;;;21.95;12.93;;;10.80;99.90;;;;;;4777397;29;20188;-78
2023/04/24 09:28:04;;;;;;;20.13;12.15;;;10.80;99.90;;;;;;4797290;29;20201;-78
2023/04/24 09:30:30;;;;;;;18.25;11.85;;;10.80;99.90;;;;;;4785602;29;20232;-78
2023/04/24 09:33:15;;;;;;;20.92;11.13;;;10.80;99.90;;;;;;4774066;30;20261;-79
2023/04/24 09:35:42;;;;;;;17.77;9.20;;;10.80;99.90;;;;;;4773903;30;20188;-79
2023/04/24 09:38:09;;;;;;;15.55;8.80;;;10.80;99.90;;;;;;4788556;29;20228;-80
2023/04/24 09:40:35;;;;;;;17.42;8.55;;;10.80;99.90;;;;;;4785831;29;20188;-78
2023/04/24 09:43:02;;;;;;;15.05;8.95;;;10.80;99.90;;;;;;4773927;30;20326;-78
2023/04/24 09:45:40;;;;;;;23.30;10.10;;;10.80;99.90;;;;;;4789929;30;20569;-78
2023/04/24 09:48:10;;;;;;;16.42;9.82;;;10.90;99.90;;;;;;4773788;30;20227;-78
2023/04/24 09:50:36;;;;;;;16.95;9.07;;;10.80;99.90;;;;;;4761790;30;20204;-79
2023/04/24 09:53:04;;;;;;;23.65;8.88;;;10.90;99.90;;;;;;4788106;29;20201;-78
2023/04/24 09:55:30;;;;;;;19.30;9.35;;;10.80;99.90;;;;;;4789670;30;20180;-77
2023/04/24 09:57:58;;;;;;;22.60;8.43;;;10.80;99.90;;;;;;4789985;29;20212;-78
2023/04/24 10:00:28;;;;;;;18.88;7.70;;;10.80;99.90;;;;;;4788772;29;20627;-78
2023/04/24 10:03:00;;;;;;;19.52;7.80;;;10.80;99.90;;;;;;4789566;30;20320;-78
2023/04/24 10:05:31;;;;;;;16.98;6.85;;;10.80;99.90;;;;;;4773451;30;20184;-78
2023/04/24 10:08:00;;;;;;;14.82;6.40;;;10.80;99.90;;;;;;4789366;30;20222;-78
2023/04/24 10:10:26;;;;;;;12.48;6.03;;;10.80;99.90;;;;;;4784649;29;20251;-78
2023/04/24 10:12:53;;;;;;;11.93;5.70;;;10.80;99.90;;;;;;4788083;29;20201;-78
2023/04/24 10:15:21;;;;;;;12.68;6.00;;;10.90;99.90;;;;;;4773837;30;20200;-78
2023/04/24 10:17:53;;;;;;;14.93;4.70;;;11.00;99.90;;;;;;4789947;30;20201;-79
2023/04/24 10:20:24;;;;;;;13.75;5.25;;;11.00;99.90;;;;;;4787632;29;20201;-78
2023/04/24 10:22:54;;;;;;;12.07;4.78;;;11.10;99.90;;;;;;4783811;29;20224;-79
2023/04/24 10:25:25;;;;;;;11.27;5.03;;;11.20;99.90;;;;;;4789103;30;20173;-80
2023/04/24 10:27:52;;;;;;;16.75;5.00;;;11.20;99.90;;;;;;4788074;30;20221;-79
2023/04/24 10:30:20;;;;;;;13.48;5.18;;;11.30;99.90;;;;;;4775660;29;21002;-79
2023/04/24 10:32:46;;;;;;;10.98;4.70;;;11.40;99.90;;;;;;4779718;29;20208;-77
2023/04/24 10:35:14;;;;;;;13.95;4.55;;;11.50;99.90;;;;;;4775656;29;20582;-77
2023/04/24 10:37:48;;;;;;;12.23;4.80;;;11.50;99.90;;;;;;4796362;29;20203;-78
2023/04/24 10:40:27;;;;;;;8.55;4.18;;;11.50;99.90;;;;;;4782699;30;20188;-79
2023/04/24 10:42:54;;;;;;;12.48;4.20;;;11.50;99.90;;;;;;4778670;29;20207;-80
2023/04/24 10:45:24;;;;;;;14.00;4.20;;;11.60;99.90;;;;;;4770771;30;20280;-79
2023/04/24 10:48:01;;;;;;;10.57;4.10;;;11.60;99.90;;;;;;4775099;29;20217;-82
2023/04/24 10:50:41;;;;;;;9.45;4.00;;;11.70;99.90;;;;;;4783142;29;20192;-83
2023/04/24 10:53:19;;;;;;;13.05;3.63;;;11.70;99.90;;;;;;4787108;30;20189;-79
2023/04/24 10:55:49;;;;;;;8.35;3.60;;;11.80;99.90;;;;;;4772578;30;20170;-79
2023/04/24 10:58:16;;;;;;;14.25;3.70;;;11.80;99.90;;;;;;4778059;29;20646;-79
2023/04/24 11:00:46;;;;;;;10.27;3.28;;;11.80;99.90;;;;;;4777578;29;20363;-79
2023/04/24 11:03:30;;;;;;;6.32;3.10;;;11.80;99.90;;;;;;4772383;29;20197;-83
2023/04/24 11:06:07;;;;;;;10.15;3.25;;;11.80;99.90;;;;;;4783764;30;20188;-79
2023/04/24 11:08:48;;;;;;;11.52;3.17;;;11.80;99.90;;;;;;4786395;30;20691;-78
2023/04/24 11:11:18;;;;;;;9.75;3.38;;;11.80;99.90;;;;;;4778865;29;20189;-80
2023/04/24 11:13:56;;;;;;;8.75;3.30;;;11.70;99.90;;;;;;4782595;29;20204;-77
2023/04/24 11:16:33;;;;;;;10.35;3.22;;;11.70;99.90;;;;;;4787619;30;20205;-78
2023/04/24 11:19:01;;;;;;;6.85;3.00;;;11.70;99.90;;;;;;4784260;30;20757;-78
2023/04/24 11:21:32;;;;;;;15.05;2.97;;;11.60;99.90;;;;;;4763708;29;20223;-81
2023/04/24 11:23:58;;;;;;;8.43;2.88;;;11.60;99.90;;;;;;4749541;30;20197;-78
2023/04/24 11:26:30;;;;;;;14.32;2.90;;;11.50;99.90;;;;;;4770302;30;20228;-77
2023/04/24 11:29:06;;;;;;;11.95;3.17;;;11.50;99.90;;;;;;4772960;30;20204;-77
2023/04/24 11:31:41;;;;;;;12.18;3.38;;;11.50;99.90;;;;;;4779113;29;20335;-77
2023/04/24 11:34:13;;;;;;;8.23;2.78;;;11.50;99.90;;;;;;4784443;29;20196;-78
2023/04/24 11:36:40;;;;;;;9.68;2.58;;;11.50;99.90;;;;;;4785062;30;20212;-78
2023/04/24 11:39:06;;;;;;;11.40;2.75;;;11.50;99.90;;;;;;4787616;30;20188;-78
2023/04/24 11:41:34;;;;;;;8.43;2.17;;;11.50;99.90;;;;;;4762801;30;20642;-81
2023/04/24 11:44:00;;;;;;;9.05;2.35;;;11.50;99.90;;;;;;4781847;29;20193;-78
2023/04/24 11:46:31;;;;;;;9.82;2.22;;;11.40;99.90;;;;;;4763643;30;20298;-81
2023/04/24 11:48:57;;;;;;;8.93;2.67;;;11.40;99.90;;;;;;4783749;30;20193;-77
2023/04/24 11:51:27;;;;;;;14.43;2.58;;;11.50;99.90;;;;;;4771008;29;20218;-80
2023/04/24 11:53:56;;;;;;;11.75;2.80;;;11.40;99.90;;;;;;4763777;30;20538;-78
2023/04/24 11:56:23;;;;;;;10.63;3.22;;;11.50;99.90;;;;;;4756959;30;20201;-77
2023/04/24 11:58:51;;;;;;;7.43;2.42;;;11.50;99.90;;;;;;4769208;30;20188;-78
2023/04/24 12:01:17;;;;;;;7.82;2.30;;;11.50;99.90;;;;;;4756769;29;20193;-82
2023/04/24 12:03:48;;;;;;;7.50;2.10;;;11.50;99.90;;;;;;4775864;29;20203;-79
2023/04/24 12:06:13;;;;;;;7.53;2.30;;;11.50;99.90;;;;;;4770482;30;20247;-77
2023/04/24 12:08:39;;;;;;;9.88;2.25;;;11.50;99.90;;;;;;4785791;30;20277;-76
2023/04/24 12:11:07;;;;;;;9.80;2.72;;;11.50;99.90;;;;;;4771373;30;20216;-77
2023/04/24 12:13:33;;;;;;;10.15;2.70;;;11.40;99.90;;;;;;4778097;29;20207;-76
2023/04/24 12:16:01;;;;;;;6.65;1.98;;;11.40;99.90;;;;;;4757513;30;20193;-77
2023/04/24 12:18:27;;;;;;;10.18;2.70;;;11.30;99.90;;;;;;4783013;30;20193;-78
2023/04/24 12:20:53;;;;;;;6.63;2.20;;;11.30;99.90;;;;;;4787641;30;20650;-78
2023/04/24 12:23:37;;;;;;;8.95;2.58;;;11.20;99.90;;;;;;4780904;29;20550;-77
2023/04/24 12:26:05;;;;;;;10.63;2.42;;;11.20;99.90;;;;;;4777633;29;20212;-80
2023/04/24 12:28:38;;;;;;;5.80;2.25;;;11.10;99.90;;;;;;4774370;29;20236;-78
2023/04/24 12:31:05;;;;;;;4.82;2.05;;;11.20;99.90;;;;;;4772069;29;20229;-78
2023/04/24 12:33:36;;;;;;;9.20;2.10;;;11.20;99.90;;;;;;4783283;30;20737;-78
2023/04/24 12:36:02;;;;;;;5.88;2.20;;;11.20;99.90;;;;;;4784720;29;20198;-76
2023/04/24 12:38:39;;;;;;;7.55;2.10;;;11.20;99.90;;;;;;4775872;29;20284;-81
2023/04/24 12:41:13;;;;;;;3.70;1.60;;;11.20;99.90;;;;;;4762029;29;20224;-79
2023/04/24 12:43:51;;;;;;;5.47;1.50;;;11.30;99.90;;;;;;4770199;29;20193;-79